createdAt,value
2022-07-26T00:00:40.015Z,98213.33
2022-07-26T00:03:57.629Z,98214.77
2022-07-26T00:07:13.741Z,98208.25
2022-07-26T00:10:29.903Z,98203.33
2022-07-26T00:13:46.003Z,98188.63
2022-07-26T00:17:02.214Z,98193.02
2022-07-26T00:20:21.757Z,98178.16
2022-07-26T00:23:39.843Z,98186.13
2022-07-26T00:26:55.848Z,98180.95
2022-07-26T00:30:13.503Z,98171.74
2022-07-26T00:33:29.587Z,98162.21
2022-07-26T00:36:45.576Z,98161.01
2022-07-26T00:40:01.635Z,98159.85
2022-07-26T00:43:19.012Z,98160.94
2022-07-26T00:46:35.966Z,98151.40
2022-07-26T00:49:52.817Z,98155.38
2022-07-26T00:53:09.246Z,98156.21
2022-07-26T00:56:25.904Z,98164.73
2022-07-26T00:59:42.097Z,98170.34
2022-07-26T01:02:58.091Z,98171.14
2022-07-26T01:06:15.015Z,98160.25
2022-07-26T01:09:31.299Z,98156.11
2022-07-26T01:12:51.681Z,98155.69
2022-07-26T01:16:07.791Z,98145.69
2022-07-26T01:19:24.102Z,98140.58
2022-07-26T01:22:40.421Z,98150.88
2022-07-26T01:25:56.824Z,98139.03
2022-07-26T01:29:14.091Z,98134.88
2022-07-26T01:32:30.415Z,98130.73
2022-07-26T01:35:46.487Z,98133.88
2022-07-26T01:39:02.593Z,98142.97
2022-07-26T01:42:18.748Z,98138.69
2022-07-26T01:45:35.029Z,98136.47
2022-07-26T01:48:51.374Z,98122.73
2022-07-26T01:52:07.392Z,98118.92
2022-07-26T01:55:23.756Z,98114.95
2022-07-26T01:58:40.147Z,98112.85
2022-07-26T02:01:56.361Z,98103.52
2022-07-26T02:05:13.465Z,98101.39
2022-07-26T02:08:29.375Z,98091.76
2022-07-26T02:11:45.894Z,98095.48
2022-07-26T02:15:02.343Z,98092.56
2022-07-26T02:18:18.533Z,98087.67
2022-07-26T02:21:34.543Z,98085.16
2022-07-26T02:24:50.660Z,98086.45
2022-07-26T02:28:06.805Z,98089.92
2022-07-26T02:31:22.988Z,98090.50
2022-07-26T02:34:43.367Z,98094.81
2022-07-26T02:37:59.495Z,98089.46
2022-07-26T02:41:15.731Z,98090.59
2022-07-26T02:44:33.083Z,98092.22
2022-07-26T02:48:00.489Z,98091.89
2022-07-26T02:51:17.441Z,98089.80
2022-07-26T02:54:33.488Z,98080.59
2022-07-26T02:57:49.517Z,98071.76
2022-07-26T03:01:05.735Z,98070.95
2022-07-26T03:04:21.933Z,98064.77
2022-07-26T03:07:38.693Z,98052.77
2022-07-26T03:10:54.645Z,98050.08
2022-07-26T03:14:11.614Z,98061.38
2022-07-26T03:17:28.170Z,98051.47
2022-07-26T03:20:44.274Z,98054.14
2022-07-26T03:24:00.471Z,98042.55
2022-07-26T03:27:16.625Z,98050.58
2022-07-26T03:30:32.946Z,98040.66
2022-07-26T03:33:49.179Z,98041.25
2022-07-26T03:37:05.380Z,98046.69
2022-07-26T03:40:23.007Z,98044.92
2022-07-26T03:43:39.195Z,98045.33
2022-07-26T03:46:55.253Z,98040.05
2022-07-26T03:50:14.463Z,98044.36
2022-07-26T03:53:30.996Z,98045.95
2022-07-26T03:56:48.704Z,98031.84
2022-07-26T04:00:04.883Z,98037.85
2022-07-26T04:03:23.503Z,98020.80
2022-07-26T04:06:39.737Z,98025.97
2022-07-26T04:09:55.777Z,98023.94
2022-07-26T04:13:11.754Z,98029.69
2022-07-26T04:16:28.306Z,98026.75
2022-07-26T04:19:47.308Z,98030.02
2022-07-26T04:23:03.240Z,98029.53
2022-07-26T04:26:19.821Z,98042.44
2022-07-26T04:29:36.135Z,98032.50
2022-07-26T04:32:52.704Z,98034.13
2022-07-26T04:36:10.067Z,98033.34
2022-07-26T04:39:26.447Z,98029.34
2022-07-26T04:42:42.523Z,98027.65
2022-07-26T04:45:59.265Z,98027.77
2022-07-26T04:49:16.766Z,98030.09
2022-07-26T04:52:32.881Z,98028.89
2022-07-26T04:55:50.978Z,98032.31
2022-07-26T04:59:06.978Z,98033.86
2022-07-26T05:02:23.014Z,98039.38
2022-07-26T05:05:40.623Z,98044.91
2022-07-26T05:08:56.575Z,98038.59
2022-07-26T05:12:14.018Z,98044.31
2022-07-26T05:15:35.395Z,98038.70
2022-07-26T05:18:49.434Z,98044.42
2022-07-26T05:22:05.835Z,98046.94
2022-07-26T05:25:22.121Z,98050.23
2022-07-26T05:28:38.362Z,98048.95
2022-07-26T05:31:58.078Z,98051.41
2022-07-26T05:35:17.713Z,98051.73
2022-07-26T05:38:37.260Z,98053.98
2022-07-26T05:41:55.362Z,98043.23
2022-07-26T05:45:14.475Z,98042.46
2022-07-26T05:48:30.797Z,98044.64
2022-07-26T05:51:47.337Z,98052.23
2022-07-26T05:55:07.963Z,98045.05
2022-07-26T05:58:24.207Z,98041.59
2022-07-26T06:01:40.476Z,98040.31
2022-07-26T06:04:56.882Z,98051.41
2022-07-26T06:08:13.238Z,98061.37
2022-07-26T06:11:30.898Z,98077.84
2022-07-26T06:14:47.103Z,98095.09
2022-07-26T06:18:03.260Z,98104.81
2022-07-26T06:21:19.442Z,98106.95
2022-07-26T06:24:37.184Z,98109.66
2022-07-26T06:27:55.963Z,98107.23
2022-07-26T06:31:13.155Z,98107.78
2022-07-26T06:34:30.288Z,98112.65
2022-07-26T06:37:49.299Z,98107.55
2022-07-26T06:41:07.809Z,98105.13
2022-07-26T06:44:23.891Z,98119.68
2022-07-26T06:47:41.094Z,98127.52
2022-07-26T06:50:57.420Z,98119.66
2022-07-26T06:54:13.897Z,98131.28
2022-07-26T06:57:30.064Z,98124.80
2022-07-26T07:00:46.490Z,98131.80
2022-07-26T07:04:04.588Z,98134.76
2022-07-26T07:07:21.312Z,98126.36
2022-07-26T07:10:38.773Z,98126.59
2022-07-26T07:13:55.325Z,98129.80
2022-07-26T07:17:15.002Z,98137.26
2022-07-26T07:20:30.643Z,98142.77
2022-07-26T07:23:46.559Z,98138.56
2022-07-26T07:27:02.922Z,98151.91
2022-07-26T07:30:21.393Z,98141.39
2022-07-26T07:33:52.743Z,98158.43
2022-07-26T07:36:56.194Z,98159.58
2022-07-26T07:40:19.412Z,98150.09
2022-07-26T07:43:36.244Z,98164.99
2022-07-26T07:46:55.530Z,98176.67
2022-07-26T07:50:15.058Z,98183.89
2022-07-26T07:53:37.755Z,98185.31
2022-07-26T07:57:12.121Z,98198.91
2022-07-26T08:00:56.369Z,98214.92
2022-07-26T08:04:31.864Z,98212.69
2022-07-26T08:08:11.861Z,98218.34
2022-07-26T08:11:55.888Z,98216.55
2022-07-26T08:15:51.507Z,98227.16
2022-07-26T08:19:07.341Z,98238.83
2022-07-26T08:22:25.367Z,98239.59
2022-07-26T08:25:55.631Z,98239.52
2022-07-26T08:29:01.187Z,98241.72
2022-07-26T08:32:17.875Z,98246.84
2022-07-26T08:45:53.470Z,98270.00
2022-07-26T08:50:21.379Z,98291.38
2022-07-26T09:07:14.898Z,98329.23
2022-07-26T09:17:00.020Z,98336.53
2022-07-26T09:25:31.712Z,98346.38
2022-07-26T09:29:06.112Z,98349.09
2022-07-26T09:32:36.003Z,98352.05
2022-07-26T09:36:16.470Z,98359.08
2022-07-26T09:39:39.139Z,98365.84
2022-07-26T09:43:07.863Z,98368.55
2022-07-26T09:46:30.488Z,98370.52
2022-07-26T09:53:54.711Z,98378.80
2022-07-26T09:57:39.327Z,98393.30
2022-07-26T10:05:37.790Z,98391.79
2022-07-26T10:08:54.143Z,98393.22
2022-07-26T10:12:14.256Z,98397.86
2022-07-26T10:15:49.005Z,98404.95
2022-07-26T10:19:05.926Z,98402.78
2022-07-26T10:22:42.724Z,98403.34
2022-07-26T10:26:00.413Z,98407.13
2022-07-26T10:29:37.282Z,98414.98
2022-07-26T10:33:07.383Z,98429.06
2022-07-26T10:36:36.929Z,98423.95
2022-07-26T10:39:53.596Z,98431.23
2022-07-26T10:46:38.037Z,98424.47
2022-07-26T10:50:06.264Z,98426.89
2022-07-26T10:53:28.732Z,98433.13
2022-07-26T10:56:45.544Z,98432.05
2022-07-26T11:00:02.861Z,98426.89
2022-07-26T11:03:19.182Z,98436.63
2022-07-26T11:06:40.147Z,98444.77
2022-07-26T11:09:56.776Z,98438.58
2022-07-26T11:13:24.424Z,98442.63
2022-07-26T11:16:47.438Z,98438.86
2022-07-26T11:20:05.084Z,98448.33
2022-07-26T11:23:36.758Z,98462.91
2022-07-26T11:26:54.346Z,98457.25
2022-07-26T11:30:16.356Z,98461.56
2022-07-26T11:33:47.461Z,98453.45
2022-07-26T11:37:05.621Z,98459.13
2022-07-26T11:40:22.362Z,98465.10
2022-07-26T11:43:45.799Z,98470.76
2022-07-26T11:47:04.298Z,98466.43
2022-07-26T11:50:23.027Z,98468.89
2022-07-26T11:53:42.826Z,98462.92
2022-07-26T11:57:05.877Z,98455.38
2022-07-26T12:00:26.226Z,98452.66
2022-07-26T12:03:44.055Z,98453.73
2022-07-26T12:07:04.125Z,98454.81
2022-07-26T12:10:25.437Z,98451.56
2022-07-26T12:14:08.031Z,98443.45
2022-07-26T12:17:34.909Z,98436.17
2022-07-26T12:20:54.697Z,98442.38
2022-07-26T12:24:08.944Z,98436.70
2022-07-26T12:27:30.197Z,98440.76
2022-07-26T12:30:46.413Z,98436.70
2022-07-26T12:34:03.328Z,98441.03
2022-07-26T12:37:39.564Z,98445.61
2022-07-26T12:40:50.532Z,98438.33
2022-07-26T12:44:06.837Z,98440.76
2022-07-26T12:47:23.048Z,98446.44
2022-07-26T12:50:40.070Z,98451.84
2022-07-26T12:53:58.026Z,98451.56
2022-07-26T12:57:14.992Z,98453.43
2022-07-26T13:00:31.669Z,98449.38
2022-07-26T13:03:47.942Z,98445.52
2022-07-26T13:07:04.433Z,98451.47
2022-07-26T13:10:33.045Z,98445.50
2022-07-26T13:13:44.062Z,98449.25
2022-07-26T13:17:01.042Z,98452.44
2022-07-26T13:20:19.659Z,98453.20
2022-07-26T13:23:36.316Z,98461.55
2022-07-26T13:26:52.476Z,98463.40
2022-07-26T13:30:09.094Z,98466.56
2022-07-26T13:33:25.122Z,98468.88
2022-07-26T13:36:41.456Z,98481.27
2022-07-26T13:39:59.956Z,98475.84
2022-07-26T13:43:16.047Z,98484.41
2022-07-26T13:46:33.593Z,98494.56
2022-07-26T13:49:50.742Z,98505.19
2022-07-26T13:53:07.030Z,98511.94
2022-07-26T13:56:23.079Z,98513.39
2022-07-26T13:59:39.344Z,98518.11
2022-07-26T14:02:55.616Z,98521.31
2022-07-26T14:06:12.184Z,98531.46
2022-07-26T14:09:29.921Z,98539.42
2022-07-26T14:12:45.984Z,98541.05
2022-07-26T14:16:02.157Z,98540.68
2022-07-26T14:19:19.027Z,98534.09
2022-07-26T14:22:36.061Z,98537.61
2022-07-26T14:25:52.761Z,98540.53
2022-07-26T14:29:09.066Z,98550.69
2022-07-26T14:32:25.956Z,98550.84
2022-07-26T14:35:42.674Z,98552.38
2022-07-26T14:38:59.139Z,98555.64
2022-07-26T14:42:15.622Z,98549.63
2022-07-26T14:45:33.272Z,98551.92
2022-07-26T14:48:54.887Z,98544.40
2022-07-26T14:52:06.097Z,98540.33
2022-07-26T14:55:25.280Z,98523.06
2022-07-26T14:58:41.089Z,98526.01
2022-07-26T15:01:58.771Z,98536.44
2022-07-26T15:05:17.168Z,98545.31
2022-07-26T15:08:33.447Z,98540.44
2022-07-26T15:11:51.592Z,98539.39
2022-07-26T15:15:07.827Z,98541.31
2022-07-26T15:18:24.364Z,98548.25
2022-07-26T15:21:40.479Z,98559.27
2022-07-26T15:24:56.557Z,98551.84
2022-07-26T15:28:13.301Z,98551.09
2022-07-26T15:31:37.018Z,98548.97
2022-07-26T15:34:49.388Z,98557.11
2022-07-26T15:38:05.660Z,98546.67
2022-07-26T15:41:23.757Z,98545.36
2022-07-26T15:44:40.655Z,98547.73
2022-07-26T15:48:09.409Z,98554.61
2022-07-26T15:51:17.797Z,98552.79
2022-07-26T15:54:33.969Z,98558.17
2022-07-26T15:57:50.367Z,98560.61
2022-07-26T16:01:08.831Z,98559.55
2022-07-26T16:04:25.019Z,98564.70
2022-07-26T16:07:42.190Z,98571.14
2022-07-26T16:10:59.546Z,98570.09
2022-07-26T16:14:15.871Z,98569.83
2022-07-26T16:17:32.163Z,98571.47
2022-07-26T16:20:48.517Z,98577.97
2022-07-26T16:24:07.058Z,98580.19
2022-07-26T16:27:24.385Z,98571.05
2022-07-26T16:30:41.155Z,98574.25
2022-07-26T16:33:57.235Z,98568.01
2022-07-26T16:37:14.309Z,98562.02
2022-07-26T16:40:30.744Z,98570.09
2022-07-26T16:43:47.013Z,98573.98
2022-07-26T16:47:03.170Z,98566.42
2022-07-26T16:50:27.236Z,98562.09
2022-07-26T16:53:40.710Z,98558.28
2022-07-26T16:56:56.888Z,98561.70
2022-07-26T17:00:19.689Z,98558.44
2022-07-26T17:03:36.753Z,98550.95
2022-07-26T17:07:22.265Z,98557.38
2022-07-26T17:10:12.690Z,98557.89
2022-07-26T17:13:29.024Z,98570.75
2022-07-26T17:16:45.851Z,98568.86
2022-07-26T17:20:02.651Z,98569.37
2022-07-26T17:23:19.107Z,98569.63
2022-07-26T17:26:36.471Z,98573.03
2022-07-26T17:29:54.166Z,98584.27
2022-07-26T17:33:11.101Z,98577.50
2022-07-26T17:36:36.655Z,98572.38
2022-07-26T17:39:55.183Z,98573.10
2022-07-26T17:43:13.500Z,98570.59
2022-07-26T17:46:32.916Z,98570.84
2022-07-26T17:49:49.498Z,98581.92
2022-07-26T17:53:05.646Z,98574.91
2022-07-26T17:56:21.947Z,98578.40
2022-07-26T17:59:38.124Z,98593.14
2022-07-26T18:02:55.311Z,98583.77
2022-07-26T18:06:11.917Z,98589.66
2022-07-26T18:09:28.131Z,98594.52
2022-07-26T18:12:44.144Z,98591.62
2022-07-26T18:16:05.736Z,98593.00
2022-07-26T18:19:17.228Z,98598.85
2022-07-26T18:22:33.869Z,98598.85
2022-07-26T18:25:54.578Z,98602.03
2022-07-26T18:29:16.058Z,98598.77
2022-07-26T18:32:35.091Z,98610.48
2022-07-26T18:36:02.715Z,98602.09
2022-07-26T18:39:19.814Z,98596.13
2022-07-26T18:42:37.093Z,98606.45
2022-07-26T18:45:54.158Z,98611.52
2022-07-26T18:49:14.069Z,98611.73
2022-07-26T18:52:31.964Z,98616.31
2022-07-26T18:55:47.032Z,98611.98
2022-07-26T18:59:03.152Z,98613.50
2022-07-26T19:02:19.343Z,98608.69
2022-07-26T19:05:36.383Z,98606.25
2022-07-26T19:08:52.768Z,98604.77
2022-07-26T19:12:08.997Z,98605.23
2022-07-26T19:15:26.313Z,98601.16
2022-07-26T19:18:45.826Z,98605.14
2022-07-26T19:22:01.297Z,98602.36
2022-07-26T19:25:20.903Z,98599.12
2022-07-26T19:28:37.865Z,98603.06
2022-07-26T19:31:54.435Z,98589.08
2022-07-26T19:35:12.465Z,98586.40
2022-07-26T19:38:28.931Z,98589.79
2022-07-26T19:41:45.209Z,98592.97
2022-07-26T19:45:01.398Z,98595.06
2022-07-26T19:48:17.895Z,98598.70
2022-07-26T19:51:34.555Z,98585.17
2022-07-26T19:54:51.814Z,98586.56
2022-07-26T19:58:08.022Z,98590.89
2022-07-26T20:01:24.265Z,98590.30
2022-07-26T20:04:45.476Z,98595.08
2022-07-26T20:07:58.528Z,98591.69
2022-07-26T20:11:16.426Z,98587.61
2022-07-26T20:14:32.757Z,98590.20
2022-07-26T20:17:49.179Z,98593.03
2022-07-26T20:21:06.184Z,98596.41
2022-07-26T20:24:22.286Z,98593.38
2022-07-26T20:27:38.328Z,98585.69
2022-07-26T20:30:55.726Z,98589.55
2022-07-26T20:34:12.007Z,98596.20
2022-07-26T20:37:28.139Z,98598.54
2022-07-26T20:40:44.363Z,98601.89
2022-07-26T20:44:00.756Z,98603.89
2022-07-26T20:47:17.537Z,98609.12
2022-07-26T20:50:33.775Z,98609.01
2022-07-26T20:53:50.212Z,98616.58
2022-07-26T20:57:06.198Z,98613.66
2022-07-26T21:00:26.893Z,98623.47
2022-07-26T21:03:42.998Z,98626.03
2022-07-26T21:06:59.249Z,98623.34
2022-07-26T21:10:16.901Z,98627.07
2022-07-26T21:13:35.035Z,98622.75
2022-07-26T21:16:51.213Z,98623.23
2022-07-26T21:20:07.686Z,98620.99
2022-07-26T21:23:24.473Z,98616.67
2022-07-26T21:26:40.595Z,98621.23
2022-07-26T21:29:56.587Z,98623.79
2022-07-26T21:33:12.700Z,98630.43
2022-07-26T21:36:28.805Z,98632.28
2022-07-26T21:39:44.715Z,98627.39
2022-07-26T21:43:02.079Z,98632.16
2022-07-26T21:46:20.489Z,98631.34
2022-07-26T21:49:36.555Z,98639.39
2022-07-26T21:52:52.540Z,98641.70
2022-07-26T21:56:09.151Z,98640.54
2022-07-26T21:59:26.564Z,98638.06
2022-07-26T22:02:42.631Z,98634.58
2022-07-26T22:05:58.837Z,98637.94
2022-07-26T22:09:15.459Z,98633.63
2022-07-26T22:12:32.192Z,98636.77
2022-07-26T22:15:48.790Z,98636.17
2022-07-26T22:19:04.810Z,98633.97
2022-07-26T22:22:20.853Z,98637.45
2022-07-26T22:25:41.728Z,98635.37
2022-07-26T22:28:57.852Z,98639.22
2022-07-26T22:32:14.534Z,98639.09
2022-07-26T22:35:32.314Z,98634.64
2022-07-26T22:38:47.102Z,98635.44
2022-07-26T22:42:15.355Z,98633.83
2022-07-26T22:45:22.137Z,98639.19
2022-07-26T22:48:38.936Z,98632.06
2022-07-26T22:51:56.217Z,98635.65
2022-07-26T22:55:14.446Z,98642.92
2022-07-26T22:58:30.868Z,98639.06
2022-07-26T23:01:46.863Z,98644.42
2022-07-26T23:05:02.823Z,98632.88
2022-07-26T23:11:37.078Z,98630.06
2022-07-26T23:14:53.200Z,98627.62
2022-07-26T23:18:09.262Z,98636.09
2022-07-26T23:21:25.285Z,98631.94
2022-07-26T23:24:43.526Z,98626.78
2022-07-26T23:28:00.013Z,98636.09
2022-07-26T23:31:17.548Z,98632.23
2022-07-26T23:34:33.694Z,98634.11
2022-07-26T23:37:49.787Z,98638.48
2022-07-26T23:41:06.049Z,98634.40
2022-07-26T23:44:22.195Z,98636.47
2022-07-26T23:47:38.512Z,98639.29
2022-07-26T23:50:54.663Z,98639.66
2022-07-26T23:54:10.943Z,98646.66
2022-07-26T23:57:27.672Z,98640.55
